Portada
METAR-TAF:

METAR-TAF

Aeroports :

Aeroport de Rabat

Rabat, Marroc

latitud: 34-03N, longitud: 006-46W, altitud: 84 m

Observació

L'informe es va fer fa 20 minuts, a les 18:30 UTC
Vent 7 kt del Nord-Oest
Temperatura 16°C
Humitat 68%
Pressió 1016 hPa
Visibilitat: 6000 m
Núvols disperses a una alçada de 2000 ft
Núvols disperses a una alçada de 2600 ft

METAR: GMME 291830Z 31007KT 6000 SCT020 SCT026 16/10 Q1016 NOSIG

Hora: 19:50 (18:50 UTC)

Pronòstic

L'informe es va fer fa 1 hora i 50 minuts, a les 17:00 UTC
Pronòstic vàlid del 29 a les 18 UTC al 30 a les 24 UTC
Vent 10 kt del Oest
Visibilitat: 8000 m
Núvols disperses a una alçada de 1500 ft
Cel ennuvolat a una alçada de 2000 ft
Temporalment
l' 29 a les 18 UTC al 30 a les 06 UTC
Vent 6 kt del Sud-Est

TAF: GMME 291700Z 2918/3024 26010KT 8000 SCT015 BKN020 TEMPO 2918/3006 14006KT

Observacions i pronòstics meteorològics de més de 4000 aeroports (METAR i TAF).

Les estacions disponibles són els punts grocs i vermells al mapa.

Posi el ratolí al punt desitjat per veure el nom de l'estació.

Feu clic per veure les observacions i els pronòstics meteorològics.

Per canviar el mapa: feu clic els botons verds amb una creu de color negre per apropar; al botó verd amb un guió per allunyar la imatge; o en les fletxes verdes per a mapes adjacents.


METAR-TAF: